หน้าหลัก
METAR-TAF:

METAR-TAF

ท่าอากาศยาน :

Sogndal, นอร์เวย์

ละติจูด: 61-09N, ลองจิจูด: 007-08E, ความสูง: 49 ม.

การสังเกตสภาพอากาศปัจจุบัน

รายงานได้ทำขึ้นเมื่อ 24 นาทีที่แล้ว ณ เวลา 04:20 UTC
ลมสงบ
อุณหภูมิ 10°C
ความชื้น 87%
ความกดอากาศ 1011 hPa
ทัศนวิสัย 10 กม. หรือมากกว่า
มีเมฆน้อยที่ความสูง 5500 ฟุต

METAR: ENSG 250420Z 00000KT 9999 FEW055 10/08 Q1011 RMK WIND 3806FT 28002KT

เวลา: 06:44 (04:44 UTC)

การพยากรณ์

รายงานได้ทำขึ้นเมื่อ 23 ชั่วโมงและ 44 นาทีที่แล้ว ณ เวลา 05:00 UTC
การพยากรณ์มีผลตั้งแต่วันที่ 24 ณ เวลา 06 UTC จนถึงวันที่ 24 ณ เวลา 14 UTC
ลม 3 นอตจากทิศทางซึ่งแปรผันได้
ทัศนวิสัย 10 กม. หรือมากกว่า
มีเมฆน้อยที่ความสูง 1000 ฟุต
ความน่าจะเป็น 30% :
ชั่วคราว
ตั้งแต่วันที่ 24 ณ เวลา 10 UTC จนถึงวันที่ 24 ณ เวลา 14 UTC
มีเมฆเป็นส่วนมากเว้นเป็นระยะที่ความสูง 3000 ฟุต, คิวมูโลนิมบัส.
ฝนโปรยปราย,

TAF: ENSG 240500Z 2406/2414 VRB03KT 9999 FEW010 PROB30 TEMPO 2410/2414 SHRA BKN030CB

สังเกตการณ์สภาพอากาศและพยากรณ์อากาศของสนามบินมากกว่า 4000 แห่ง (รายงาน METAR และ TAF).

สถานีที่ดูได้จะแสดงไว้ด้วยจุดสีเหลืองและสีแดงบนแผนที่.

เลื่อนเมาส์ไปเหนือจุดเพื่อดูชื่อสถานี.

แล้วคลิกเพื่อดูสังเกตการณ์และการพยากรณ์สภาพอากาศ.

ในการเปลี่ยนแผนที่: คลิกที่ปุ่มสีเขียวที่มีกากบาทสีดำเพื่อซูมเข้า; ที่ปุ่มสีเขียวที่มีขีดเพื่อซูมออก; หรือที่ลูกศรสีเขียวเพื่อไปยังแผนที่ที่อยู่ติดกัน.


METAR-TAF: